Time;durP1;ratioP1;P1;durP2;ratioP2;P2;SDS_P1;SDS_P2;PMS_P1;PMS_P2;Temp;Humidity;BMP_temperature;BMP_pressure;BME280_temperature;BME280_humidity;BME280_pressure;Samples;Min_cycle;Max_cycle;Signal;HPM_P1;HPM_P2
2021/11/24 00:00:01;;;;;;;45.40;23.77;;;;;;;6.13;100.00;101584.06;5135427;27;20276;-77
2021/11/24 00:02:28;;;;;;;41.67;23.57;;;;;;;6.10;100.00;101576.22;5132681;27;20209;-76
2021/11/24 00:04:54;;;;;;;50.17;24.83;;;;;;;6.06;100.00;101579.63;5138263;27;20276;-77
2021/11/24 00:07:21;;;;;;;44.80;23.83;;;;;;;6.09;100.00;101573.63;5137429;27;20258;-77
2021/11/24 00:09:48;;;;;;;45.93;25.00;;;;;;;6.17;100.00;101564.28;5133056;27;20674;-77
2021/11/24 00:12:15;;;;;;;40.17;23.60;;;;;;;6.27;100.00;101560.97;5137741;27;20199;-77
2021/11/24 00:14:41;;;;;;;39.20;21.83;;;;;;;6.37;100.00;101569.78;5134766;27;20275;-77
2021/11/24 00:17:08;;;;;;;38.50;23.33;;;;;;;6.35;100.00;101580.13;5139279;27;20340;-77
2021/11/24 00:19:34;;;;;;;39.90;24.17;;;;;;;6.31;100.00;101591.31;5135925;27;20220;-77
2021/11/24 00:22:00;;;;;;;35.63;23.10;;;;;;;6.34;100.00;101601.75;5136316;27;20261;-77
2021/11/24 00:24:27;;;;;;;45.87;23.67;;;;;;;6.39;100.00;101606.13;5138702;27;20297;-78
2021/11/24 00:26:55;;;;;;;32.17;21.33;;;;;;;6.32;100.00;101613.81;5135951;27;20201;-76
2021/11/24 00:29:21;;;;;;;31.77;21.00;;;;;;;6.28;99.85;101624.06;5133875;27;20222;-76
2021/11/24 00:31:47;;;;;;;34.83;21.40;;;;;;;6.30;99.83;101625.88;5136536;27;20812;-76
2021/11/24 00:34:14;;;;;;;31.50;19.17;;;;;;;6.30;99.06;101635.34;5137917;27;20228;-76
2021/11/24 00:36:40;;;;;;;25.53;18.30;;;;;;;6.38;99.13;101656.22;5135428;27;21047;-76
2021/11/24 00:39:06;;;;;;;27.37;19.20;;;;;;;6.38;98.80;101661.41;5136821;27;20257;-75
2021/11/24 00:41:33;;;;;;;30.10;20.13;;;;;;;6.38;98.38;101667.47;5132794;27;20212;-76
2021/11/24 00:44:00;;;;;;;38.97;19.63;;;;;;;6.41;98.25;101672.72;5136279;27;20274;-76
2021/11/24 00:46:27;;;;;;;29.70;18.70;;;;;;;6.44;98.70;101679.69;5137022;27;20246;-76
2021/11/24 00:48:53;;;;;;;31.30;18.60;;;;;;;6.42;97.92;101676.19;5135430;27;20714;-76
2021/11/24 00:51:20;;;;;;;28.00;18.83;;;;;;;6.44;98.85;101683.16;5134282;27;20206;-76
2021/11/24 00:53:46;;;;;;;34.20;19.43;;;;;;;6.50;98.60;101679.78;5136460;27;20228;-76
2021/11/24 00:56:12;;;;;;;36.73;21.27;;;;;;;6.51;98.13;101678.97;5137419;27;20290;-76
2021/11/24 00:58:39;;;;;;;32.17;21.97;;;;;;;6.50;98.94;101664.22;5131878;27;20249;-76
2021/11/24 01:01:06;;;;;;;33.60;20.73;;;;;;;6.50;99.18;101656.44;5133933;27;20208;-76
2021/11/24 01:03:33;;;;;;;37.30;20.67;;;;;;;6.50;98.57;101659.03;5133398;27;20321;-76
2021/11/24 01:05:59;;;;;;;27.37;19.23;;;;;;;6.55;99.04;101647.91;5135850;27;20231;-76
2021/11/24 01:08:26;;;;;;;30.67;19.77;;;;;;;6.58;98.27;101649.69;5137853;27;20322;-76
2021/11/24 01:10:52;;;;;;;29.40;19.20;;;;;;;6.59;98.24;101651.41;5130891;27;20265;-77
2021/11/24 01:13:20;;;;;;;31.83;18.00;;;;;;;6.57;98.62;101661.75;5134911;27;20225;-77
2021/11/24 01:15:46;;;;;;;33.73;20.37;;;;;;;6.61;97.88;101672.22;5131510;27;20256;-76
2021/11/24 01:18:14;;;;;;;36.70;20.47;;;;;;;6.51;97.69;101671.19;5136563;27;20197;-76
2021/11/24 01:20:41;;;;;;;32.50;19.50;;;;;;;6.52;98.64;101662.53;5135841;27;20216;-76
2021/11/24 01:23:08;;;;;;;29.33;18.47;;;;;;;6.53;98.42;101661.69;5131594;27;20302;-76
2021/11/24 01:25:34;;;;;;;24.70;18.03;;;;;;;6.52;98.38;101670.31;5136256;27;20208;-76
2021/11/24 01:28:00;;;;;;;24.80;17.60;;;;;;;6.52;98.43;101670.31;5137111;27;20220;-76
2021/11/24 01:30:27;;;;;;;26.47;18.30;;;;;;;6.57;97.93;101673.88;5133291;27;20700;-76
2021/11/24 01:32:54;;;;;;;32.73;20.33;;;;;;;6.61;98.50;101682.59;5132423;27;20584;-76
2021/11/24 01:35:22;;;;;;;25.93;19.43;;;;;;;6.60;98.61;101678.22;5133099;27;20205;-76
2021/11/24 01:37:48;;;;;;;27.87;18.43;;;;;;;6.62;98.17;101679.13;5133357;27;20209;-76
2021/11/24 01:40:15;;;;;;;33.17;20.37;;;;;;;6.54;97.78;101672.09;5135613;27;20671;-76
2021/11/24 01:42:42;;;;;;;39.87;20.27;;;;;;;6.57;97.77;101666.09;5135113;27;20310;-76
2021/11/24 01:45:10;;;;;;;35.17;21.20;;;;;;;6.54;97.90;101658.25;5134902;27;20266;-76
2021/11/24 01:47:36;;;;;;;38.67;20.53;;;;;;;6.53;98.06;101652.19;5132992;27;20209;-76
2021/11/24 01:50:03;;;;;;;34.47;20.43;;;;;;;6.51;98.70;101634.84;5131368;27;20200;-76
2021/11/24 01:52:33;;;;;;;36.97;21.80;;;;;;;6.51;98.38;101629.66;5134750;27;20505;-76
2021/11/24 01:55:00;;;;;;;26.03;18.20;;;;;;;6.48;98.62;101630.50;5134485;27;20278;-76
2021/11/24 01:57:27;;;;;;;28.23;18.23;;;;;;;6.53;98.78;101620.19;5135475;27;20197;-76
2021/11/24 01:59:56;;;;;;;33.40;19.87;;;;;;;6.59;98.72;101616.84;5133759;27;20681;-76
2021/11/24 02:02:22;;;;;;;25.97;18.63;;;;;;;6.62;98.43;101622.06;5133211;27;20203;-76
2021/11/24 02:04:48;;;;;;;27.63;18.03;;;;;;;6.61;98.45;101626.38;5132713;27;20540;-76
2021/11/24 02:07:15;;;;;;;21.60;16.80;;;;;;;6.61;98.14;101630.69;5132713;27;20265;-76
2021/11/24 02:09:44;;;;;;;26.90;17.80;;;;;;;6.60;97.73;101623.75;5134867;27;20228;-76
2021/11/24 02:12:12;;;;;;;32.47;19.00;;;;;;;6.61;97.97;101621.19;5140040;27;20262;-76
2021/11/24 02:14:38;;;;;;;26.70;17.83;;;;;;;6.60;98.13;101622.06;5139751;27;20246;-76
2021/11/24 02:17:05;;;;;;;24.07;17.87;;;;;;;6.53;98.42;101618.47;5139068;27;20200;-76
2021/11/24 02:19:33;;;;;;;30.00;17.47;;;;;;;6.56;98.60;101608.16;5136158;27;20690;-76
2021/11/24 02:22:02;;;;;;;25.70;18.03;;;;;;;6.52;98.05;101613.25;5138764;27;20748;-76
2021/11/24 02:24:31;;;;;;;26.27;17.17;;;;;;;6.56;98.23;101600.38;5136728;27;20221;-76
2021/11/24 02:26:59;;;;;;;25.37;15.97;;;;;;;6.43;98.98;101587.19;5140412;27;20464;-76
2021/11/24 02:29:25;;;;;;;20.27;16.07;;;;;;;6.34;99.21;101573.22;5138891;27;20804;-76
2021/11/24 02:31:54;;;;;;;27.83;15.73;;;;;;;6.40;98.90;101561.19;5135872;27;20258;-76
2021/11/24 02:34:21;;;;;;;19.47;15.63;;;;;;;6.47;99.46;101560.44;5139652;27;20230;-76
2021/11/24 02:36:48;;;;;;;20.57;15.30;;;;;;;6.28;99.57;101547.19;5138295;27;20262;-76
2021/11/24 02:39:16;;;;;;;24.80;15.40;;;;;;;6.15;99.96;101534.84;5136854;27;20305;-75
2021/11/24 02:41:43;;;;;;;20.23;15.10;;;;;;;6.08;100.00;101523.50;5137473;27;20263;-76
2021/11/24 02:44:18;;;;;;;21.93;15.50;;;;;;;6.06;100.00;101506.19;5136258;27;20227;-76
2021/11/24 02:46:44;;;;;;;19.97;13.90;;;;;;;6.06;100.00;101501.00;5140198;27;20212;-76
2021/11/24 02:49:11;;;;;;;24.03;15.10;;;;;;;6.10;100.00;101492.41;5136421;27;20721;-76
2021/11/24 02:51:38;;;;;;;19.00;14.47;;;;;;;6.06;100.00;101486.31;5138752;27;20209;-76
2021/11/24 02:54:05;;;;;;;23.40;15.10;;;;;;;5.99;100.00;101481.03;5141177;27;20299;-76
2021/11/24 02:56:33;;;;;;;22.13;15.77;;;;;;;6.06;100.00;101475.06;5136066;27;20263;-76
2021/11/24 02:58:59;;;;;;;25.87;17.27;;;;;;;5.99;100.00;101471.53;5136002;27;20251;-76
2021/11/24 03:01:26;;;;;;;17.43;14.77;;;;;;;6.03;100.00;101462.94;5137384;27;20203;-75
2021/11/24 03:03:52;;;;;;;19.00;14.77;;;;;;;6.13;100.00;101470.00;5135549;27;20281;-78
2021/11/24 03:06:19;;;;;;;19.03;14.83;;;;;;;6.24;100.00;101466.72;5137414;27;20208;-78
2021/11/24 03:08:45;;;;;;;21.30;15.80;;;;;;;6.33;100.00;101475.50;5137579;27;20648;-77
2021/11/24 03:11:12;;;;;;;18.33;14.13;;;;;;;6.35;100.00;101483.31;5138174;27;20563;-78
2021/11/24 03:13:40;;;;;;;22.60;14.97;;;;;;;6.37;100.00;101492.00;5141484;27;20213;-77
2021/11/24 03:16:06;;;;;;;24.57;16.30;;;;;;;6.42;100.00;101498.13;5136848;27;20205;-77
2021/11/24 03:18:33;;;;;;;20.67;14.87;;;;;;;6.42;100.00;101510.22;5136371;27;20564;-77
2021/11/24 03:20:59;;;;;;;22.17;15.93;;;;;;;6.42;99.79;101513.69;5134306;27;20225;-78
2021/11/24 03:23:26;;;;;;;17.10;14.77;;;;;;;6.47;99.93;101529.31;5137946;27;20590;-78
2021/11/24 03:25:52;;;;;;;19.80;14.50;;;;;;;6.48;99.88;101528.44;5140716;27;20262;-78
2021/11/24 03:28:18;;;;;;;21.60;14.80;;;;;;;6.50;99.26;101531.94;5137956;27;20201;-77
2021/11/24 03:30:46;;;;;;;21.63;16.40;;;;;;;6.43;99.07;101543.09;5142832;27;20221;-77
2021/11/24 03:33:13;;;;;;;22.10;15.97;;;;;;;6.44;98.66;101539.63;5138472;27;20224;-77
2021/11/24 03:35:39;;;;;;;23.17;16.40;;;;;;;6.43;98.98;101533.56;5137807;27;20247;-77
2021/11/24 03:38:07;;;;;;;19.27;15.33;;;;;;;6.47;99.85;101534.50;5128628;27;20622;-77
2021/11/24 03:40:35;;;;;;;20.93;15.87;;;;;;;6.52;99.34;101538.03;5138027;27;20206;-77
2021/11/24 03:43:02;;;;;;;24.87;16.23;;;;;;;6.52;98.40;101535.44;5136466;27;20226;-78
2021/11/24 03:45:32;;;;;;;19.67;15.37;;;;;;;6.47;98.72;101550.94;5139468;27;20208;-78
2021/11/24 03:48:01;;;;;;;21.53;15.10;;;;;;;6.46;98.04;101541.41;5137727;27;20214;-78
2021/11/24 03:50:28;;;;;;;25.83;16.60;;;;;;;6.43;98.79;101537.91;5134936;27;20573;-78
2021/11/24 03:52:55;;;;;;;22.50;15.87;;;;;;;6.30;97.94;101548.09;5140673;27;20228;-77
2021/11/24 03:55:22;;;;;;;20.03;15.27;;;;;;;6.28;97.80;101544.59;5138963;27;20204;-78
2021/11/24 03:57:50;;;;;;;25.87;16.37;;;;;;;6.25;98.63;101528.09;5137053;27;20214;-77
2021/11/24 04:00:19;;;;;;;22.67;14.93;;;;;;;6.16;98.86;101513.25;5137576;27;20235;-77
2021/11/24 04:02:45;;;;;;;26.07;16.23;;;;;;;6.11;99.63;101507.13;5132900;27;20200;-76
2021/11/24 04:05:14;;;;;;;26.77;16.50;;;;;;;6.08;99.05;101501.88;5137270;27;20678;-77
2021/11/24 04:07:41;;;;;;;19.70;15.00;;;;;;;6.10;99.37;101502.78;5136972;27;20666;-77
2021/11/24 04:10:09;;;;;;;17.23;14.23;;;;;;;6.23;100.00;101485.72;5138103;27;20225;-77
2021/11/24 04:12:37;;;;;;;20.90;15.23;;;;;;;6.19;99.70;101489.13;5138654;27;20209;-77
2021/11/24 04:15:04;;;;;;;19.63;15.30;;;;;;;6.26;99.96;101489.22;5135677;27;20201;-76
2021/11/24 04:17:31;;;;;;;17.80;14.13;;;;;;;6.22;99.92;101491.75;5137396;27;20212;-77
2021/11/24 04:19:58;;;;;;;23.47;14.50;;;;;;;6.24;99.91;101487.47;5136772;27;20701;-77
2021/11/24 04:22:25;;;;;;;20.03;14.57;;;;;;;6.22;99.05;101496.94;5136593;27;20205;-77
2021/11/24 04:24:52;;;;;;;18.10;14.57;;;;;;;6.23;99.25;101501.28;5140510;27;20225;-77
2021/11/24 04:27:19;;;;;;;19.53;14.17;;;;;;;6.26;98.67;101509.09;5138819;27;20205;-77
2021/11/24 04:29:45;;;;;;;16.13;14.43;;;;;;;6.39;98.41;101520.56;5136047;27;20236;-77
2021/11/24 04:32:11;;;;;;;17.07;14.87;;;;;;;6.38;97.42;101544.72;5132544;27;20752;-77
2021/11/24 04:34:38;;;;;;;17.47;15.40;;;;;;;6.02;97.79;101557.09;5135412;27;20237;-77
2021/11/24 04:37:04;;;;;;;18.73;15.13;;;;;;;6.02;98.78;101523.38;5138108;27;20261;-78
2021/11/24 04:39:32;;;;;;;22.07;14.90;;;;;;;6.00;98.84;101500.91;5133352;27;20208;-77
2021/11/24 04:41:59;;;;;;;20.70;15.83;;;;;;;5.97;98.95;101497.41;5136990;27;20254;-77
2021/11/24 04:44:25;;;;;;;20.17;15.47;;;;;;;6.11;99.28;101497.63;5137360;27;20714;-77
2021/11/24 04:46:52;;;;;;;21.27;15.97;;;;;;;6.03;99.30;101504.41;5135312;27;20206;-77
2021/11/24 04:49:18;;;;;;;16.73;13.77;;;;;;;6.14;99.24;101502.88;5136235;27;20229;-77
2021/11/24 04:51:45;;;;;;;23.47;15.50;;;;;;;6.14;98.76;101513.25;5136178;27;20222;-76
2021/11/24 04:54:12;;;;;;;18.63;14.33;;;;;;;6.14;98.40;101523.63;5135312;27;20640;-77
2021/11/24 04:56:40;;;;;;;16.30;14.37;;;;;;;6.06;97.97;101527.78;5134240;27;20209;-77
2021/11/24 04:59:06;;;;;;;18.57;14.97;;;;;;;6.12;98.64;101501.09;5136121;27;20204;-77
2021/11/24 05:01:33;;;;;;;15.10;13.33;;;;;;;6.24;98.38;101492.63;5134519;27;21156;-76
2021/11/24 05:03:59;;;;;;;15.27;13.20;;;;;;;6.20;97.48;101512.44;5136172;27;20229;-77
2021/11/24 05:06:26;;;;;;;17.30;13.23;;;;;;;6.07;97.41;101526.09;5134406;27;20208;-76
2021/11/24 05:08:52;;;;;;;19.60;14.63;;;;;;;6.12;98.31;101524.41;5137842;27;20272;-77
2021/11/24 05:11:20;;;;;;;16.63;14.80;;;;;;;6.09;97.95;101527.84;5133694;27;20207;-77
2021/11/24 05:13:51;;;;;;;14.77;13.27;;;;;;;5.92;98.15;101522.31;5143827;27;20255;-78
2021/11/24 05:16:18;;;;;;;18.73;12.27;;;;;;;6.01;98.20;101507.84;5135198;27;20213;-77
2021/11/24 05:18:47;;;;;;;14.97;11.37;;;;;;;6.11;98.56;101496.78;5136735;27;20221;-77
2021/11/24 05:21:18;;;;;;;18.23;12.60;;;;;;;6.18;99.17;101485.63;5132997;27;20259;-77
2021/11/24 05:23:44;;;;;;;17.77;13.07;;;;;;;6.21;98.54;101477.06;5134970;27;20225;-77
2021/11/24 05:26:11;;;;;;;16.20;12.77;;;;;;;6.28;98.61;101486.66;5131527;27;20206;-77
2021/11/24 05:28:38;;;;;;;16.93;14.00;;;;;;;6.14;98.06;101508.06;5133096;27;20281;-77
2021/11/24 05:31:07;;;;;;;15.93;12.00;;;;;;;6.21;97.54;101515.94;5132961;27;20264;-77
2021/11/24 05:33:34;;;;;;;15.80;11.30;;;;;;;6.31;98.29;101516.09;5132948;27;20224;-77
2021/11/24 05:36:01;;;;;;;15.43;13.73;;;;;;;6.22;98.11;101507.31;5136165;27;20235;-77
2021/11/24 05:38:27;;;;;;;17.03;13.00;;;;;;;6.24;98.27;101515.97;5135198;27;20489;-77
2021/11/24 05:40:53;;;;;;;18.60;15.83;;;;;;;5.89;97.72;101531.78;5134303;27;20281;-78
2021/11/24 05:43:22;;;;;;;16.73;14.00;;;;;;;5.96;97.98;101528.47;5137140;27;20272;-77
2021/11/24 05:46:11;;;;;;;15.77;13.43;;;;;;;6.10;97.50;101521.78;5131233;27;20209;-77
2021/11/24 05:48:38;;;;;;;17.80;14.00;;;;;;;6.18;98.03;101518.47;5135332;27;20220;-77
2021/11/24 05:51:05;;;;;;;19.17;14.77;;;;;;;6.22;97.67;101525.44;5137667;27;20743;-77
2021/11/24 05:53:31;;;;;;;16.77;14.53;;;;;;;6.30;97.41;101519.56;5136970;27;20704;-77
2021/11/24 05:55:58;;;;;;;13.93;12.40;;;;;;;6.34;97.37;101523.94;5136215;27;20213;-77
2021/11/24 05:58:26;;;;;;;13.57;11.63;;;;;;;6.41;97.53;101527.50;5132784;27;20209;-77
2021/11/24 06:00:53;;;;;;;15.60;13.67;;;;;;;6.32;97.14;101541.19;5136888;27;20208;-77
2021/11/24 06:03:20;;;;;;;18.30;13.23;;;;;;;6.43;96.80;101545.69;5134038;27;20226;-78
2021/11/24 06:05:48;;;;;;;14.83;13.07;;;;;;;6.27;96.39;101562.72;5136404;27;20714;-77
2021/11/24 06:08:14;;;;;;;19.60;14.77;;;;;;;6.35;96.19;101566.31;5138352;27;20275;-77
2021/11/24 06:10:41;;;;;;;16.10;13.37;;;;;;;6.27;96.92;101539.38;5135306;27;20221;-78
2021/11/24 06:13:07;;;;;;;15.33;13.37;;;;;;;6.15;96.35;101542.63;5131849;27;20269;-77
2021/11/24 06:15:34;;;;;;;19.67;14.47;;;;;;;6.09;96.93;101525.25;5136052;27;20214;-78
2021/11/24 06:18:00;;;;;;;16.47;12.30;;;;;;;6.19;97.39;101520.22;5135217;27;20208;-78
2021/11/24 06:20:27;;;;;;;14.33;12.83;;;;;;;6.19;97.52;101513.31;5134967;27;20265;-78
2021/11/24 06:22:55;;;;;;;18.17;12.43;;;;;;;6.22;97.45;101499.53;5131490;27;20781;-78
2021/11/24 06:25:21;;;;;;;21.03;12.93;;;;;;;6.18;97.59;101508.09;5134301;27;20206;-78
2021/11/24 06:27:48;;;;;;;17.90;14.20;;;;;;;5.98;97.19;101524.19;5139718;27;20208;-78
2021/11/24 06:30:17;;;;;;;19.07;12.47;;;;;;;6.00;97.05;101524.22;5134388;27;20265;-78
2021/11/24 06:32:44;;;;;;;13.90;12.40;;;;;;;6.00;97.35;101519.91;5134853;27;20201;-77
2021/11/24 06:35:12;;;;;;;20.27;14.23;;;;;;;6.11;97.37;101513.19;5132815;27;20782;-77
2021/11/24 06:37:39;;;;;;;20.87;13.73;;;;;;;6.12;97.02;101511.47;5137366;27;20237;-78
2021/11/24 06:40:08;;;;;;;14.80;12.67;;;;;;;6.06;96.76;101511.34;5135662;27;20239;-78
2021/11/24 06:42:34;;;;;;;20.40;13.83;;;;;;;6.05;97.00;101520.88;5138137;27;20208;-77
2021/11/24 06:45:01;;;;;;;15.77;11.77;;;;;;;6.14;96.86;101520.13;5136772;27;20250;-78
2021/11/24 06:47:27;;;;;;;13.23;11.67;;;;;;;6.19;96.51;101515.91;5137757;27;20214;-77
2021/11/24 06:49:54;;;;;;;16.90;13.30;;;;;;;6.24;96.91;101516.84;5134725;27;20649;-77
2021/11/24 06:52:20;;;;;;;17.60;12.50;;;;;;;6.12;96.58;101522.69;5134776;27;20214;-78
2021/11/24 06:54:47;;;;;;;15.77;13.33;;;;;;;6.13;96.55;101514.09;5132761;27;20285;-78
2021/11/24 06:57:14;;;;;;;16.00;12.67;;;;;;;6.22;97.17;101513.34;5138037;27;20204;-78
2021/11/24 06:59:41;;;;;;;33.23;20.87;;;;;;;6.24;97.17;101523.75;5142787;27;20637;-78
2021/11/24 07:02:07;;;;;;;20.30;14.07;;;;;;;6.32;96.90;101514.38;5138484;27;20201;-78
2021/11/24 07:04:34;;;;;;;16.53;13.97;;;;;;;6.36;97.50;101523.94;5138039;27;20225;-77
2021/11/24 07:07:00;;;;;;;19.90;13.70;;;;;;;6.24;96.57;101535.00;5137950;27;20702;-78
2021/11/24 07:09:27;;;;;;;22.13;14.00;;;;;;;6.31;96.53;101542.03;5140842;27;20204;-78
2021/11/24 07:11:54;;;;;;;19.30;15.30;;;;;;;6.33;96.60;101544.66;5135754;27;20218;-78
2021/11/24 07:14:21;;;;;;;18.23;14.53;;;;;;;6.39;96.33;101538.69;5143113;27;20292;-78
2021/11/24 07:16:48;;;;;;;18.83;13.27;;;;;;;6.44;96.14;101542.22;5135769;27;20202;-77
2021/11/24 07:19:16;;;;;;;15.90;13.20;;;;;;;6.50;96.85;101542.31;5135049;27;20218;-78
2021/11/24 07:21:47;;;;;;;16.13;12.80;;;;;;;6.54;96.20;101544.09;5137697;27;20215;-78
2021/11/24 07:24:14;;;;;;;16.63;13.37;;;;;;;6.59;96.31;101546.78;5133564;27;20224;-78
2021/11/24 07:26:40;;;;;;;17.30;13.43;;;;;;;6.63;96.27;101545.97;5132290;27;20201;-77
2021/11/24 07:29:07;;;;;;;14.80;12.53;;;;;;;6.65;96.56;101542.56;5132693;27;20204;-78
2021/11/24 07:31:34;;;;;;;20.37;12.33;;;;;;;6.69;96.22;101546.94;5135732;27;20254;-78
2021/11/24 07:34:01;;;;;;;15.47;12.73;;;;;;;6.75;96.32;101548.75;5136512;27;20225;-78
2021/11/24 07:36:27;;;;;;;15.93;12.63;;;;;;;6.73;95.69;101543.53;5136060;27;20208;-78
2021/11/24 07:38:54;;;;;;;13.90;12.47;;;;;;;6.80;96.21;101551.41;5133704;27;20309;-78
2021/11/24 07:41:20;;;;;;;19.83;13.80;;;;;;;6.82;95.83;101554.91;5135282;27;20200;-77
2021/11/24 07:43:47;;;;;;;16.40;14.07;;;;;;;6.82;95.93;101557.50;5133351;27;20229;-77
2021/11/24 07:46:13;;;;;;;14.27;11.60;;;;;;;6.44;94.10;101601.88;5132508;27;20197;-78
2021/11/24 07:48:41;;;;;;;18.17;13.53;;;;;;;6.56;94.97;101602.97;5133163;27;20194;-78
2021/11/24 07:51:09;;;;;;;14.60;12.53;;;;;;;6.69;95.07;101583.25;5131448;27;20265;-77
2021/11/24 07:53:35;;;;;;;14.20;12.20;;;;;;;6.75;94.85;101572.97;5132667;27;20234;-78
2021/11/24 07:56:02;;;;;;;17.57;12.60;;;;;;;6.78;95.02;101560.91;5133128;27;20250;-78
2021/11/24 07:58:28;;;;;;;15.07;12.60;;;;;;;6.81;95.66;101559.22;5131519;27;20201;-78
2021/11/24 08:00:57;;;;;;;14.63;12.00;;;;;;;6.86;95.59;101551.53;5134525;27;20200;-77
2021/11/24 08:03:23;;;;;;;21.03;12.80;;;;;;;6.87;95.99;101550.66;5133990;27;20221;-78
2021/11/24 08:05:51;;;;;;;13.87;11.80;;;;;;;6.86;95.15;101548.94;5132080;27;20201;-77
2021/11/24 08:08:17;;;;;;;13.97;12.37;;;;;;;6.92;95.16;101559.41;5133049;27;20289;-77
2021/11/24 08:10:44;;;;;;;16.27;12.43;;;;;;;6.94;94.60;101560.28;5127830;27;20261;-78
2021/11/24 08:13:10;;;;;;;20.17;12.30;;;;;;;6.95;95.27;101554.22;5130798;27;20221;-77
2021/11/24 08:15:36;;;;;;;15.13;11.13;;;;;;;6.99;94.51;101555.16;5130858;27;20485;-77
2021/11/24 08:18:03;;;;;;;17.73;15.65;;;;;;;7.09;95.21;101570.00;5133803;27;20490;-77
2021/11/24 08:20:29;;;;;;;13.67;12.20;;;;;;;7.13;95.27;101564.84;5132529;27;20259;-77
2021/11/24 08:22:57;;;;;;;18.43;12.80;;;;;;;7.14;95.12;101561.41;5128577;27;20224;-77
2021/11/24 08:25:23;;;;;;;13.03;11.50;;;;;;;7.07;94.26;101556.13;5129964;27;20209;-77
2021/11/24 08:27:50;;;;;;;13.30;11.23;;;;;;;7.14;94.53;101544.97;5128016;27;20622;-77
2021/11/24 08:30:17;;;;;;;17.30;12.23;;;;;;;7.17;95.06;101547.59;5128455;27;20230;-77
2021/11/24 08:32:43;;;;;;;14.00;12.40;;;;;;;7.23;95.02;101542.47;5129438;27;20204;-77
2021/11/24 08:35:10;;;;;;;13.13;11.37;;;;;;;7.25;95.11;101537.31;5128438;27;20213;-76
2021/11/24 08:37:37;;;;;;;14.87;10.97;;;;;;;7.20;95.05;101534.66;5128372;27;20213;-76
2021/11/24 08:40:06;;;;;;;13.07;10.97;;;;;;;7.25;94.51;101535.56;5128237;27;20209;-77
2021/11/24 08:42:33;;;;;;;16.77;10.50;;;;;;;7.21;95.11;101535.53;5130885;27;20511;-76
2021/11/24 08:44:59;;;;;;;13.37;10.67;;;;;;;7.28;94.75;101524.38;5128393;27;20281;-77
2021/11/24 08:47:26;;;;;;;10.93;9.83;;;;;;;7.27;94.98;101535.59;5126628;27;20262;-77
2021/11/24 08:49:52;;;;;;;11.07;9.47;;;;;;;7.34;94.54;101543.50;5128882;27;20206;-77
2021/11/24 08:52:19;;;;;;;11.60;10.37;;;;;;;7.34;94.23;101561.69;5132930;27;20755;-77
2021/11/24 08:54:45;;;;;;;10.30;9.20;;;;;;;7.13;92.26;101614.19;5131647;27;20807;-77
2021/11/24 08:57:13;;;;;;;11.03;9.63;;;;;;;7.05;91.82;101640.91;5130345;27;20254;-77
2021/11/24 08:59:39;;;;;;;11.17;9.67;;;;;;;7.15;92.00;101628.09;5127827;27;20234;-76
2021/11/24 09:02:06;;;;;;;12.87;10.10;;;;;;;7.26;92.61;101609.19;5128418;27;20201;-78
2021/11/24 09:04:33;;;;;;;10.57;9.13;;;;;;;7.28;92.67;101599.69;5125987;27;20268;-76
2021/11/24 09:06:59;;;;;;;11.27;9.07;;;;;;;7.37;91.71;101612.78;5127001;27;20214;-76
2021/11/24 09:09:26;;;;;;;9.30;7.97;;;;;;;7.47;92.74;101601.69;5130238;27;20682;-75
2021/11/24 09:11:52;;;;;;;9.03;8.13;;;;;;;7.53;92.87;101580.06;5125148;27;20300;-75
2021/11/24 09:14:20;;;;;;;9.00;8.10;;;;;;;7.56;92.11;101588.78;5126835;27;20229;-76
2021/11/24 09:16:47;;;;;;;9.63;7.63;;;;;;;7.53;90.35;101635.53;5126356;27;20229;-76
2021/11/24 09:19:13;;;;;;;7.53;6.77;;;;;;;7.46;89.37;101702.97;5126838;27;20299;-76
2021/11/24 09:21:40;;;;;;;7.97;7.10;;;;;;;7.39;87.60;101766.06;5125454;27;20200;-75
2021/11/24 09:24:12;;;;;;;9.10;7.63;;;;;;;7.19;86.88;101784.78;5125891;27;20228;-76
2021/11/24 09:26:42;;;;;;;8.67;7.30;;;;;;;7.30;88.13;101772.00;5129063;27;20209;-75
2021/11/24 09:29:09;;;;;;;10.10;7.57;;;;;;;7.39;89.44;101701.13;5125589;27;20686;-76
2021/11/24 09:31:37;;;;;;;8.20;6.73;;;;;;;7.50;90.91;101660.59;5131497;27;20230;-76
2021/11/24 09:34:04;;;;;;;7.80;6.73;;;;;;;7.29;88.58;101720.88;5127279;27;20221;-76
2021/11/24 09:36:31;;;;;;;7.13;6.30;;;;;;;7.26;88.00;101729.50;5125909;27;20206;-76
2021/11/24 09:38:58;;;;;;;9.03;6.77;;;;;;;7.44;88.72;101723.72;5132284;27;20260;-76
2021/11/24 09:41:25;;;;;;;7.67;6.87;;;;;;;7.60;89.41;101700.56;5133158;27;20220;-76
2021/11/24 09:43:54;;;;;;;6.93;5.50;;;;;;;7.50;86.77;101720.34;5124951;27;20644;-76
2021/11/24 09:46:21;;;;;;;6.07;5.33;;;;;;;7.37;85.38;101792.00;5125011;27;20209;-77
2021/11/24 09:48:50;;;;;;;7.80;7.00;;;;;;;7.41;86.35;101783.41;5126796;27;20719;-77
2021/11/24 09:51:18;;;;;;;10.20;8.23;;;;;;;7.22;88.93;101713.88;5128657;27;20226;-76
2021/11/24 09:53:46;;;;;;;9.20;8.27;;;;;;;7.29;89.46;101695.78;5127658;27;20223;-76
2021/11/24 09:56:13;;;;;;;8.13;7.33;;;;;;;7.30;87.91;101733.91;5123424;27;20202;-75
2021/11/24 09:58:39;;;;;;;7.50;6.60;;;;;;;7.11;87.25;101757.81;5128605;27;20586;-76
2021/11/24 10:01:06;;;;;;;6.90;6.20;;;;;;;7.05;86.01;101776.78;5137668;27;20197;-76
2021/11/24 10:03:32;;;;;;;7.87;5.87;;;;;;;7.15;86.13;101770.91;5130397;27;20766;-75
2021/11/24 10:06:01;;;;;;;6.33;5.60;;;;;;;7.29;86.92;101746.88;5126896;27;20798;-76
2021/11/24 10:08:32;;;;;;;7.23;5.87;;;;;;;7.48;87.67;101725.50;5125778;27;20201;-76
2021/11/24 10:10:58;;;;;;;6.83;6.13;;;;;;;7.54;87.04;101740.31;5126226;27;20225;-76
2021/11/24 10:13:25;;;;;;;6.50;5.03;;;;;;;7.69;87.81;101718.84;5135317;27;20269;-76
2021/11/24 10:15:55;;;;;;;5.83;5.23;;;;;;;7.60;84.46;101781.13;5132094;27;20209;-76
2021/11/24 10:18:24;;;;;;;6.57;5.93;;;;;;;7.47;84.44;101832.00;5134145;27;20234;-76
2021/11/24 10:20:54;;;;;;;6.27;5.67;;;;;;;7.66;85.54;101781.22;5130918;27;20206;-76
2021/11/24 10:23:30;;;;;;;6.40;5.23;;;;;;;7.47;84.01;101801.72;5129479;27;20232;-77
2021/11/24 10:26:13;;;;;;;6.97;6.33;;;;;;;7.55;85.52;101794.03;5130537;27;20208;-77
2021/11/24 10:28:40;;;;;;;6.27;5.67;;;;;;;7.76;86.06;101757.09;5129994;27;21195;-77
2021/11/24 10:31:28;;;;;;;9.10;5.60;;;;;;;7.69;84.23;101784.72;5139651;27;20232;-76
2021/11/24 10:33:55;;;;;;;5.97;5.10;;;;;;;7.55;84.58;101807.91;5136078;27;20236;-75
2021/11/24 10:36:21;;;;;;;5.37;4.80;;;;;;;7.67;85.62;101778.63;5128769;27;20233;-75
2021/11/24 10:38:52;;;;;;;5.07;4.40;;;;;;;7.70;84.41;101798.59;5127218;27;20209;-77
2021/11/24 10:41:36;;;;;;;4.90;4.40;;;;;;;7.93;85.93;101742.59;5135200;27;20206;-77
2021/11/24 10:44:03;;;;;;;4.47;3.40;;;;;;;8.01;83.80;101819.81;5127997;27;20809;-76
2021/11/24 10:46:32;;;;;;;4.23;3.47;;;;;;;8.12;82.47;101832.09;5128762;27;20261;-77
2021/11/24 10:49:04;;;;;;;4.07;3.63;;;;;;;8.30;82.50;101838.41;5135702;27;20302;-76
2021/11/24 10:51:36;;;;;;;4.10;3.30;;;;;;;8.30;81.46;101885.25;5129099;27;20229;-76
2021/11/24 10:54:16;;;;;;;3.90;3.23;;;;;;;8.26;79.45;101938.94;5131803;27;20275;-76
2021/11/24 10:57:04;;;;;;;4.00;3.60;;;;;;;8.40;80.96;101907.94;5127250;27;20254;-76
2021/11/24 10:59:32;;;;;;;4.30;3.90;;;;;;;8.45;80.35;101902.84;5126894;27;21333;-75
2021/11/24 11:02:22;;;;;;;5.03;3.60;;;;;;;8.54;80.21;101900.34;5126716;27;20234;-75
2021/11/24 11:05:06;;;;;;;5.23;3.03;;;;;;;8.49;79.60;101935.84;5127104;27;20282;-75
2021/11/24 11:07:38;;;;;;;3.10;2.80;;;;;;;8.55;78.92;101944.59;5136880;27;20213;-76
2021/11/24 11:10:09;;;;;;;3.77;3.27;;;;;;;8.57;80.37;101884.78;5129002;27;20618;-76
2021/11/24 11:12:37;;;;;;;4.23;3.83;;;;;;;8.57;79.02;101931.63;5133636;27;20237;-76
2021/11/24 11:15:26;;;;;;;4.73;3.03;;;;;;;8.57;78.28;101949.84;5132481;27;20234;-76
2021/11/24 11:17:59;;;;;;;3.73;3.43;;;;;;;8.42;76.35;101981.72;5135340;27;20207;-76
2021/11/24 11:20:29;;;;;;;3.93;3.53;;;;;;;8.44;77.31;101977.41;5131201;27;21292;-75